Time;durP1;ratioP1;P1;durP2;ratioP2;P2;SDS_P1;SDS_P2;PMS_P1;PMS_P2;Temp;Humidity;BMP_temperature;BMP_pressure;BME280_temperature;BME280_humidity;BME280_pressure;Samples;Min_cycle;Max_cycle;Signal;HPM_P1;HPM_P2
2021/10/02 00:46:42;;;;;;;;;;;13.30;99.90;;;;;;5081738;28;19997;-78
2021/10/02 00:49:09;;;;;;;;;;;13.30;99.90;;;;;;5082212;28;20257;-78
2021/10/02 00:51:38;;;;;;;;;;;13.30;99.90;;;;;;5079793;28;20398;-78
2021/10/02 00:54:03;;;;;;;;;;;13.30;99.90;;;;;;5069345;28;19929;-78
2021/10/02 00:56:29;;;;;;;;;;;13.30;99.90;;;;;;5073553;28;20592;-78
2021/10/02 00:58:54;;;;;;;;;;;13.20;99.90;;;;;;5073797;28;19916;-78
2021/10/02 01:01:38;;;;;;;;;;;13.20;99.90;;;;;;5072435;28;19916;-79
2021/10/02 01:04:33;;;;;;;;;;;13.10;99.90;;;;;;5074920;28;19920;-78
2021/10/02 01:07:16;;;;;;;;;;;13.10;99.90;;;;;;5030145;28;20282;-79
2021/10/02 01:09:43;;;;;;;;;;;13.10;99.90;;;;;;5033885;28;19924;-78
2021/10/02 01:12:29;;;;;;;;;;;13.10;99.90;;;;;;5033600;28;19913;-78
2021/10/02 01:15:09;;;;;;;;;;;13.00;99.90;;;;;;5027177;28;19917;-77
2021/10/02 01:17:35;;;;;;;;;;;13.00;99.90;;;;;;5031149;28;19917;-78
2021/10/02 01:20:15;;;;;;;;;;;12.90;99.90;;;;;;5031570;28;19913;-78
2021/10/02 01:22:59;;;;;;;;;;;12.90;99.90;;;;;;5031297;28;20193;-78
2021/10/02 01:25:43;;;;;;;;;;;12.90;99.90;;;;;;5028304;28;19917;-79
2021/10/02 01:28:11;;;;;;;;;;;12.90;99.90;;;;;;5031025;28;20299;-78
2021/10/02 01:30:55;;;;;;;;;;;12.80;99.90;;;;;;5031210;28;19960;-78
2021/10/02 01:33:33;;;;;;;;;;;12.80;99.90;;;;;;5013446;28;22246;-78
2021/10/02 01:47:16;;;;;;;;;;;12.90;99.90;;;;;;5073402;28;19962;-78
2021/10/02 01:49:45;;;;;;;;;;;12.90;99.90;;;;;;5071318;28;20219;-78
2021/10/02 01:52:12;;;;;;;;;;;12.90;99.90;;;;;;5072688;28;19916;-78
2021/10/02 01:54:40;;;;;;;;;;;12.90;99.90;;;;;;5071434;28;20235;-77
2021/10/02 01:57:06;;;;;;;;;;;12.90;99.90;;;;;;5072755;28;20293;-77
2021/10/02 01:59:32;;;;;;;;;;;12.90;99.90;;;;;;5071949;28;19921;-78
2021/10/02 02:01:58;;;;;;;;;;;12.90;99.90;;;;;;5075443;28;19918;-78
2021/10/02 02:04:25;;;;;;;;;;;12.90;99.90;;;;;;5080908;28;19991;-78
2021/10/02 02:06:52;;;;;;;;;;;12.80;99.90;;;;;;5075393;28;19974;-78
2021/10/02 02:09:19;;;;;;;;;;;12.90;99.90;;;;;;5074877;28;19927;-78
2021/10/02 02:11:45;;;;;;;;;;;12.80;99.90;;;;;;5077204;28;19921;-77
2021/10/02 02:14:13;;;;;;;;;;;12.80;99.90;;;;;;5075292;28;20382;-77
2021/10/02 02:16:40;;;;;;;;;;;12.80;99.90;;;;;;5075346;28;19966;-78
2021/10/02 02:19:06;;;;;;;;;;;12.70;99.90;;;;;;5073841;28;19960;-77
2021/10/02 02:21:32;;;;;;;;;;;12.70;99.90;;;;;;5082796;28;19940;-80
2021/10/02 02:23:59;;;;;;;;;;;12.70;99.90;;;;;;5082175;28;20216;-78
2021/10/02 02:26:27;;;;;;;;;;;12.70;99.90;;;;;;5081093;28;19919;-78
2021/10/02 02:28:52;;;;;;;;;;;12.70;99.90;;;;;;5078169;28;19932;-78
2021/10/02 02:31:18;;;;;;;;;;;12.70;99.90;;;;;;5073329;28;19919;-78
2021/10/02 02:33:44;;;;;;;;;;;12.70;99.90;;;;;;5068394;28;19928;-77
2021/10/02 02:36:10;;;;;;;;;;;12.70;99.90;;;;;;5069830;28;19916;-77
2021/10/02 02:38:36;;;;;;;;;;;12.70;99.90;;;;;;5065808;28;19919;-77
2021/10/02 02:41:02;;;;;;;;;;;12.70;99.90;;;;;;5068590;28;19956;-77
2021/10/02 02:43:32;;;;;;;;;;;12.70;99.90;;;;;;5069271;28;19955;-78
2021/10/02 02:46:08;;;;;;;;;;;12.70;99.90;;;;;;5072706;28;19917;-78
2021/10/02 02:48:37;;;;;;;;;;;12.60;99.90;;;;;;5074419;28;20414;-77
2021/10/02 02:51:04;;;;;;;;;;;12.80;99.90;;;;;;5075690;28;19924;-77
2021/10/02 02:53:30;;;;;;;;;;;12.80;99.90;;;;;;5076634;28;20319;-76
2021/10/02 02:56:06;;;;;;;;;;;12.80;99.90;;;;;;5075850;28;19955;-77
2021/10/02 02:58:32;;;;;;;;;;;12.70;99.90;;;;;;5076068;28;19917;-78
2021/10/02 03:01:00;;;;;;;;;;;12.70;99.90;;;;;;5074545;28;19924;-77
2021/10/02 03:03:27;;;;;;;;;;;12.60;99.90;;;;;;5070524;28;19916;-77
2021/10/02 03:06:01;;;;;;;;;;;12.50;99.90;;;;;;5073498;28;19920;-77
2021/10/02 03:08:30;;;;;;;;;;;12.50;99.90;;;;;;5073996;28;19920;-77
2021/10/02 03:11:00;;;;;;;;;;;12.40;99.90;;;;;;5074206;28;20265;-76
2021/10/02 03:13:27;;;;;;;;;;;12.50;99.90;;;;;;5107422;27;19916;-78
2021/10/02 03:15:54;;;;;;;;;;;12.50;99.90;;;;;;5075717;28;19969;-77
2021/10/02 03:18:20;;;;;;;;;;;12.50;99.90;;;;;;5073867;28;20273;-77
2021/10/02 03:20:50;;;;;;;;;;;12.40;99.90;;;;;;5074626;28;19913;-78
2021/10/02 03:23:20;;;;;;;;;;;12.40;99.90;;;;;;5103215;28;20011;-77
2021/10/02 03:25:46;;;;;;;;;;;12.40;99.90;;;;;;5075212;28;20309;-78
2021/10/02 03:28:12;;;;;;;;;;;12.30;99.90;;;;;;5079056;28;20012;-78
2021/10/02 03:30:38;;;;;;;;;;;12.20;99.90;;;;;;5067238;28;20015;-77
2021/10/02 03:33:04;;;;;;;;;;;12.10;99.90;;;;;;5071441;28;19916;-77
2021/10/02 03:35:29;;;;;;;;;;;12.10;99.90;;;;;;5071391;28;19921;-77
2021/10/02 03:37:55;;;;;;;;;;;12.00;99.90;;;;;;5086437;28;20267;-77
2021/10/02 03:40:21;;;;;;;;;;;12.00;99.90;;;;;;5071974;28;19914;-78
2021/10/02 03:42:49;;;;;;;;;;;12.00;99.90;;;;;;5074754;28;20296;-77
2021/10/02 03:45:15;;;;;;;;;;;12.00;99.90;;;;;;5066160;28;19924;-78
2021/10/02 03:47:41;;;;;;;;;;;12.00;99.90;;;;;;5071040;28;19912;-78
2021/10/02 03:50:07;;;;;;;;;;;12.00;99.90;;;;;;5069204;28;19938;-77
2021/10/02 03:52:32;;;;;;;;;;;12.00;99.90;;;;;;5066421;28;19912;-77
2021/10/02 03:54:58;;;;;;;;;;;12.10;99.90;;;;;;5070225;28;19939;-78
2021/10/02 03:57:24;;;;;;;;;;;12.10;99.90;;;;;;5070165;28;19959;-77
2021/10/02 03:59:49;;;;;;;;;;;12.00;99.90;;;;;;5071550;28;20555;-77
2021/10/02 04:02:15;;;;;;;;;;;11.90;99.90;;;;;;5074473;28;19917;-77
2021/10/02 04:04:41;;;;;;;;;;;11.80;99.90;;;;;;5073472;28;20342;-77
2021/10/02 04:07:06;;;;;;;;;;;11.80;99.90;;;;;;5074492;28;19913;-77
2021/10/02 04:09:32;;;;;;;;;;;11.70;99.90;;;;;;5073582;28;19912;-77
2021/10/02 04:11:57;;;;;;;;;;;11.70;99.90;;;;;;5075238;28;20325;-77
2021/10/02 04:14:23;;;;;;;;;;;11.70;99.90;;;;;;5082170;28;19920;-77
2021/10/02 04:16:49;;;;;;;;;;;11.60;99.90;;;;;;5082722;28;19912;-76
2021/10/02 04:19:14;;;;;;;;;;;11.70;99.90;;;;;;5083489;28;19920;-76
2021/10/02 04:21:40;;;;;;;;;;;11.70;99.90;;;;;;5081332;28;20003;-77
2021/10/02 04:24:06;;;;;;;;;;;11.70;99.90;;;;;;5081197;28;19964;-77
2021/10/02 04:26:31;;;;;;;;;;;11.70;99.90;;;;;;5082451;28;19916;-77
2021/10/02 04:28:57;;;;;;;;;;;11.80;99.90;;;;;;5115749;27;20533;-76
2021/10/02 04:31:22;;;;;;;;;;;11.70;99.90;;;;;;5079561;28;20003;-77
2021/10/02 04:33:48;;;;;;;;;;;11.80;99.90;;;;;;5081471;28;19920;-76
2021/10/02 04:36:14;;;;;;;;;;;11.90;99.90;;;;;;5081331;28;19920;-77
2021/10/02 04:38:40;;;;;;;;;;;11.80;99.90;;;;;;5081057;28;19912;-77
2021/10/02 04:41:06;;;;;;;;;;;11.90;99.90;;;;;;5077850;28;19920;-77
2021/10/02 04:43:34;;;;;;;;;;;11.90;99.90;;;;;;5080058;28;20223;-77
2021/10/02 04:46:00;;;;;;;;;;;11.90;99.90;;;;;;5082248;28;20011;-76
2021/10/02 04:48:27;;;;;;;;;;;12.00;99.90;;;;;;5078667;28;20326;-77
2021/10/02 04:50:53;;;;;;;;;;;11.90;99.90;;;;;;5079687;28;19948;-76
2021/10/02 04:53:18;;;;;;;;;;;11.80;99.90;;;;;;5083319;28;19944;-77
2021/10/02 04:55:44;;;;;;;;;;;11.70;99.90;;;;;;5081989;28;20190;-77
2021/10/02 04:58:09;;;;;;;;;;;11.70;99.90;;;;;;5076510;28;19924;-76
2021/10/02 05:00:35;;;;;;;;;;;11.60;99.90;;;;;;5076134;28;19916;-77
2021/10/02 05:03:01;;;;;;;;;;;11.60;99.90;;;;;;5075480;28;20006;-76
2021/10/02 05:05:27;;;;;;;;;;;11.60;99.90;;;;;;5073687;28;19991;-77
2021/10/02 05:07:53;;;;;;;;;;;11.50;99.90;;;;;;5077212;28;20008;-77
2021/10/02 05:10:18;;;;;;;;;;;11.50;99.90;;;;;;5073116;28;19920;-77
2021/10/02 05:12:44;;;;;;;;;;;11.50;99.90;;;;;;5077836;28;19912;-77
2021/10/02 05:15:10;;;;;;;;;;;11.40;99.90;;;;;;5073938;28;19920;-76
2021/10/02 05:17:35;;;;;;;;;;;11.30;99.90;;;;;;5071125;28;19913;-76
2021/10/02 05:20:02;;;;;;;;;;;11.20;99.90;;;;;;5081311;28;19916;-76
2021/10/02 05:22:27;;;;;;;;;;;11.20;99.90;;;;;;5072923;28;19921;-76
2021/10/02 05:24:53;;;;;;;;;;;11.20;99.90;;;;;;5073821;28;19920;-76
2021/10/02 05:27:18;;;;;;;;;;;11.30;99.90;;;;;;5077266;28;19918;-76
2021/10/02 05:29:45;;;;;;;;;;;11.30;99.90;;;;;;5075318;28;19913;-77
2021/10/02 05:32:10;;;;;;;;;;;11.20;99.90;;;;;;5080455;28;20280;-76
2021/10/02 05:34:36;;;;;;;;;;;11.20;99.90;;;;;;5083185;28;20397;-77
2021/10/02 05:37:02;;;;;;;;;;;11.20;99.90;;;;;;5083031;28;19955;-77
2021/10/02 05:39:28;;;;;;;;;;;11.30;99.90;;;;;;5075805;28;19916;-77
2021/10/02 05:41:54;;;;;;;;;;;11.20;99.90;;;;;;5076671;28;20262;-76
2021/10/02 05:44:20;;;;;;;;;;;11.30;99.90;;;;;;5076364;28;19917;-75
2021/10/02 05:46:45;;;;;;;;;;;11.40;99.90;;;;;;5084362;28;19909;-76
2021/10/02 05:49:11;;;;;;;;;;;11.40;99.90;;;;;;5083959;28;19920;-77
2021/10/02 05:51:36;;;;;;;;;;;11.50;99.90;;;;;;5086370;28;19994;-77
2021/10/02 05:54:02;;;;;;;;;;;11.60;99.90;;;;;;5082005;28;19963;-76
2021/10/02 05:56:28;;;;;;;;;;;11.70;99.90;;;;;;5085571;28;19935;-76
2021/10/02 05:58:53;;;;;;;;;;;11.80;99.90;;;;;;5088138;28;19912;-77
2021/10/02 06:01:19;;;;;;;;;;;11.90;99.90;;;;;;5081803;28;19917;-76
2021/10/02 06:03:48;;;;;;;;;;;11.90;99.90;;;;;;5079685;28;19920;-77
2021/10/02 06:06:13;;;;;;;;;;;12.00;99.90;;;;;;5085809;28;19920;-78
2021/10/02 06:08:39;;;;;;;;;;;12.00;99.90;;;;;;5086610;28;19984;-77
2021/10/02 06:11:05;;;;;;;;;;;12.00;99.90;;;;;;5083055;28;19915;-76
2021/10/02 06:13:33;;;;;;;;;;;12.10;99.90;;;;;;5082950;28;19959;-75
2021/10/02 06:16:01;;;;;;;;;;;12.10;99.90;;;;;;5083622;28;19995;-76
2021/10/02 06:18:27;;;;;;;;;;;12.20;99.90;;;;;;5084530;28;19912;-76
2021/10/02 06:20:53;;;;;;;;;;;12.20;99.90;;;;;;5085807;28;19917;-78
2021/10/02 06:23:18;;;;;;;;;;;12.20;99.90;;;;;;5077882;28;20023;-76
2021/10/02 06:25:44;;;;;;;;;;;12.30;99.90;;;;;;5091431;28;19991;-76
2021/10/02 06:28:09;;;;;;;;;;;12.30;99.90;;;;;;5080693;28;19916;-76
2021/10/02 06:30:35;;;;;;;;;;;12.30;99.90;;;;;;5081885;28;19974;-80
2021/10/02 06:33:01;;;;;;;;;;;12.30;99.90;;;;;;5082465;28;19920;-75
2021/10/02 06:35:27;;;;;;;;;;;12.40;99.90;;;;;;5084473;28;19921;-76
2021/10/02 06:37:52;;;;;;;;;;;12.40;99.90;;;;;;5081436;28;20300;-75
2021/10/02 06:40:18;;;;;;;;;;;12.40;99.90;;;;;;5078162;28;19916;-76
2021/10/02 06:42:43;;;;;;;;;;;12.50;99.90;;;;;;5083989;28;19916;-75
2021/10/02 06:45:09;;;;;;;;;;;12.50;99.90;;;;;;5080062;28;19924;-77
2021/10/02 06:47:35;;;;;;;;;;;12.60;99.90;;;;;;5069847;28;20370;-76
2021/10/02 06:50:01;;;;;;;;;;;12.60;99.90;;;;;;5064547;28;20003;-75
2021/10/02 06:52:27;;;;;;;;;;;12.60;99.90;;;;;;5065114;28;19940;-75
2021/10/02 06:54:54;;;;;;;;;;;12.60;99.90;;;;;;5066321;28;20015;-76
2021/10/02 06:57:20;;;;;;;;;;;12.60;99.90;;;;;;5065252;28;19931;-75
2021/10/02 06:59:46;;;;;;;;;;;12.70;99.90;;;;;;5070724;28;19913;-78
2021/10/02 07:02:11;;;;;;;;;;;12.70;99.90;;;;;;5074383;28;20223;-76
2021/10/02 07:04:37;;;;;;;;;;;12.70;99.90;;;;;;5065628;28;19984;-76
2021/10/02 07:07:03;;;;;;;;;;;12.70;99.90;;;;;;5064888;28;19965;-76
2021/10/02 07:09:29;;;;;;;;;;;12.70;99.90;;;;;;5084838;28;19920;-75
2021/10/02 07:11:55;;;;;;;;;;;12.70;99.90;;;;;;5084887;28;19915;-75
2021/10/02 07:14:20;;;;;;;;;;;12.90;99.90;;;;;;5084756;28;19974;-76
2021/10/02 07:16:46;;;;;;;;;;;12.90;99.90;;;;;;5076970;28;19966;-76
2021/10/02 07:19:12;;;;;;;;;;;13.20;99.90;;;;;;5082280;28;19962;-75
2021/10/02 07:21:38;;;;;;;;;;;13.30;99.90;;;;;;5082790;28;20296;-76
2021/10/02 07:24:04;;;;;;;;;;;13.50;99.90;;;;;;5084641;28;19917;-77
2021/10/02 07:26:30;;;;;;;;;;;13.60;99.90;;;;;;5082464;28;20015;-75
2021/10/02 07:28:55;;;;;;;;;;;13.70;99.90;;;;;;5085819;28;19912;-76
2021/10/02 07:31:21;;;;;;;;;;;13.80;99.90;;;;;;5089879;28;19925;-77
2021/10/02 07:33:48;;;;;;;;;;;14.00;99.90;;;;;;5063303;28;19960;-76
2021/10/02 07:36:17;;;;;;;;;;;14.10;99.90;;;;;;5063115;28;19917;-76
2021/10/02 07:38:43;;;;;;;;;;;14.20;99.90;;;;;;5072676;28;19917;-76
2021/10/02 07:41:10;;;;;;;;;;;14.20;99.90;;;;;;5071926;28;20300;-76
2021/10/02 07:43:35;;;;;;;;;;;14.40;99.90;;;;;;5090171;28;19916;-76
2021/10/02 07:46:01;;;;;;;;;;;14.60;99.90;;;;;;5071607;28;20373;-76
2021/10/02 07:48:27;;;;;;;;;;;14.80;99.90;;;;;;5064991;28;20325;-75
2021/10/02 07:50:54;;;;;;;;;;;15.10;99.90;;;;;;5074305;28;19920;-76
2021/10/02 07:53:20;;;;;;;;;;;15.40;99.90;;;;;;5070472;28;19920;-78
2021/10/02 07:55:48;;;;;;;;;;;15.70;99.90;;;;;;5071486;28;19923;-76
2021/10/02 07:58:14;;;;;;;;;;;16.00;99.90;;;;;;5073859;28;19968;-77
2021/10/02 08:00:39;;;;;;;;;;;16.20;99.90;;;;;;5071980;28;20375;-76
2021/10/02 08:03:05;;;;;;;;;;;16.20;99.90;;;;;;5077981;28;19923;-76
2021/10/02 08:05:31;;;;;;;;;;;16.10;99.90;;;;;;5073941;28;19916;-76
2021/10/02 08:07:57;;;;;;;;;;;16.10;99.90;;;;;;5068022;28;19938;-77
2021/10/02 08:10:26;;;;;;;;;;;16.20;99.90;;;;;;5072721;28;19962;-76
2021/10/02 08:12:52;;;;;;;;;;;16.20;99.90;;;;;;5073372;28;19923;-76
2021/10/02 08:15:19;;;;;;;;;;;16.20;99.90;;;;;;5073634;28;19916;-76
2021/10/02 08:17:45;;;;;;;;;;;16.30;99.90;;;;;;5077613;28;19920;-76
2021/10/02 08:20:13;;;;;;;;;;;16.40;99.90;;;;;;5077189;28;19916;-75
2021/10/02 08:22:40;;;;;;;;;;;16.20;99.90;;;;;;5080385;28;19916;-75
2021/10/02 08:25:07;;;;;;;;;;;15.90;99.90;;;;;;5082249;28;19912;-75
2021/10/02 08:27:34;;;;;;;;;;;15.60;99.90;;;;;;5070989;28;20338;-74
2021/10/02 08:30:00;;;;;;;;;;;15.40;99.90;;;;;;5076471;28;19951;-75
2021/10/02 08:32:26;;;;;;;;;;;15.30;99.90;;;;;;5072276;28;19917;-76
2021/10/02 08:34:51;;;;;;;;;;;15.30;99.90;;;;;;5073744;28;19977;-74
2021/10/02 08:37:17;;;;;;;;;;;15.30;99.90;;;;;;5073792;28;20272;-76
2021/10/02 08:39:42;;;;;;;;;;;15.30;99.90;;;;;;5073183;28;19919;-76
2021/10/02 08:42:08;;;;;;;;;;;15.20;99.90;;;;;;5080097;28;20216;-76
2021/10/02 08:44:34;;;;;;;;;;;15.00;99.90;;;;;;5073016;28;19912;-76
2021/10/02 08:47:02;;;;;;;;;;;14.90;99.90;;;;;;5074409;28;19960;-77
2021/10/02 08:49:31;;;;;;;;;;;14.80;99.90;;;;;;5072428;28;20002;-75
2021/10/02 08:52:00;;;;;;;;;;;14.70;99.90;;;;;;5079587;28;19913;-75
2021/10/02 08:54:26;;;;;;;;;;;14.80;99.90;;;;;;5070225;28;21258;-76
2021/10/02 08:56:52;;;;;;;;;;;15.00;99.90;;;;;;5084766;28;20346;-76
2021/10/02 08:59:21;;;;;;;;;;;15.10;99.90;;;;;;5074255;28;19948;-79
2021/10/02 09:01:47;;;;;;;;;;;15.30;99.90;;;;;;5073802;28;19917;-77
2021/10/02 09:04:13;;;;;;;;;;;15.40;99.90;;;;;;5072022;28;19939;-78
2021/10/02 09:06:39;;;;;;;;;;;15.50;99.90;;;;;;5074211;28;19917;-77
2021/10/02 09:09:05;;;;;;;;;;;15.40;99.90;;;;;;5080001;28;19924;-76
2021/10/02 09:11:31;;;;;;;;;;;15.40;99.90;;;;;;5071546;28;19952;-76
2021/10/02 09:13:57;;;;;;;;;;;15.50;99.90;;;;;;5071412;28;19955;-76
2021/10/02 09:16:22;;;;;;;;;;;15.60;99.90;;;;;;5073861;28;19928;-76
2021/10/02 09:18:48;;;;;;;;;;;15.60;99.90;;;;;;5071776;28;19916;-77
2021/10/02 09:21:14;;;;;;;;;;;15.60;99.90;;;;;;5073422;28;20007;-77
2021/10/02 09:23:44;;;;;;;;;;;15.70;99.90;;;;;;5071527;28;19925;-80
2021/10/02 09:26:10;;;;;;;;;;;15.60;99.90;;;;;;5072956;28;19916;-83
2021/10/02 09:28:37;;;;;;;;;;;15.60;99.90;;;;;;5084402;28;19920;-76
2021/10/02 09:31:04;;;;;;;;;;;15.70;99.90;;;;;;5065039;28;19925;-77
2021/10/02 09:33:29;;;;;;;;;;;15.80;99.90;;;;;;5071244;28;19921;-80
2021/10/02 09:35:55;;;;;;;;;;;15.90;99.90;;;;;;5069523;28;19924;-79
2021/10/02 09:38:21;;;;;;;;;;;15.90;99.90;;;;;;5077989;28;19919;-79
2021/10/02 09:40:49;;;;;;;;;;;15.70;99.90;;;;;;5081445;28;20307;-81
2021/10/02 09:43:15;;;;;;;;;;;15.70;99.90;;;;;;5082238;28;20219;-77
2021/10/02 09:45:41;;;;;;;;;;;15.50;99.90;;;;;;5081560;28;19912;-75
2021/10/02 09:48:11;;;;;;;;;;;15.50;99.90;;;;;;5083141;28;19920;-76
2021/10/02 09:50:38;;;;;;;;;;;15.40;99.90;;;;;;5079446;28;19921;-77
2021/10/02 09:53:05;;;;;;;;;;;15.30;99.90;;;;;;5078301;28;20011;-78
2021/10/02 09:55:34;;;;;;;;;;;15.20;99.90;;;;;;5081051;28;19927;-79
2021/10/02 09:58:05;;;;;;;;;;;15.10;99.90;;;;;;5080951;28;19932;-77
2021/10/02 10:00:38;;;;;;;;;;;15.10;99.90;;;;;;5080503;28;19912;-77
2021/10/02 10:03:07;;;;;;;;;;;15.30;99.90;;;;;;5079700;28;20383;-76
2021/10/02 10:05:35;;;;;;;;;;;15.40;99.90;;;;;;5079129;28;19912;-77
2021/10/02 10:08:03;;;;;;;;;;;15.50;99.90;;;;;;5077560;28;19920;-77
2021/10/02 10:10:29;;;;;;;;;;;15.50;99.90;;;;;;5081856;28;19920;-76
2021/10/02 10:12:55;;;;;;;;;;;15.50;99.90;;;;;;5082174;28;20011;-77
2021/10/02 10:15:29;;;;;;;;;;;15.40;99.90;;;;;;5082132;28;20314;-77
2021/10/02 10:17:55;;;;;;;;;;;15.30;99.90;;;;;;5074273;28;19916;-76
2021/10/02 10:20:30;;;;;;;;;;;15.20;99.90;;;;;;5108677;28;19912;-78
2021/10/02 10:22:57;;;;;;;;;;;15.20;99.90;;;;;;5081803;28;20327;-76
2021/10/02 10:25:23;;;;;;;;;;;15.10;99.90;;;;;;5082356;28;19923;-76
2021/10/02 10:27:48;;;;;;;;;;;15.10;99.90;;;;;;5083947;28;19916;-77
2021/10/02 10:30:24;;;;;;;;;;;15.10;99.90;;;;;;5085017;28;19920;-77
2021/10/02 10:33:06;;;;;;;;;;;15.10;99.90;;;;;;5085800;28;19981;-79
2021/10/02 10:35:40;;;;;;;;;;;15.00;99.90;;;;;;5085346;28;20011;-78
2021/10/02 10:38:07;;;;;;;;;;;14.90;99.90;;;;;;5081431;28;19912;-77
2021/10/02 10:40:33;;;;;;;;;;;14.80;99.90;;;;;;5086343;28;19978;-77
2021/10/02 10:42:59;;;;;;;;;;;14.80;99.90;;;;;;5104606;28;20019;-78
2021/10/02 10:45:25;;;;;;;;;;;14.70;99.90;;;;;;5083497;28;20007;-77
2021/10/02 10:47:51;;;;;;;;;;;14.70;99.90;;;;;;5084540;28;19913;-77
2021/10/02 10:50:16;;;;;;;;;;;14.70;99.90;;;;;;5082269;28;20374;-77
2021/10/02 10:52:42;;;;;;;;;;;14.70;99.90;;;;;;5082981;28;20334;-76
2021/10/02 10:55:11;;;;;;;;;;;14.60;99.90;;;;;;5072733;28;20215;-77
2021/10/02 10:57:52;;;;;;;;;;;14.60;99.90;;;;;;5073885;28;19951;-77
2021/10/02 11:00:17;;;;;;;;;;;14.60;99.90;;;;;;5073968;28;19935;-78
2021/10/02 11:02:45;;;;;;;;;;;14.70;99.90;;;;;;5069498;28;19912;-79
2021/10/02 11:05:30;;;;;;;;;;;14.70;99.90;;;;;;5070589;28;20011;-78
2021/10/02 11:07:55;;;;;;;;;;;14.70;99.90;;;;;;5087045;28;19924;-77
2021/10/02 11:10:40;;;;;;;;;;;14.70;99.90;;;;;;5109576;27;19912;-77
2021/10/02 11:13:05;;;;;;;;;;;14.80;99.90;;;;;;5073148;28;19917;-78
2021/10/02 11:15:31;;;;;;;;;;;14.80;99.90;;;;;;5071227;28;19916;-77
2021/10/02 11:17:56;;;;;;;;;;;14.80;99.90;;;;;;5069830;28;19913;-78
2021/10/02 11:20:25;;;;;;;;;;;14.80;99.90;;;;;;5073511;28;19960;-77
2021/10/02 11:23:13;;;;;;;;;;;14.80;99.90;;;;;;5072767;28;19928;-77
2021/10/02 11:25:39;;;;;;;;;;;14.80;99.90;;;;;;5074665;28;19952;-76
2021/10/02 11:28:20;;;;;;;;;;;14.80;99.90;;;;;;5080626;28;20261;-77
2021/10/02 11:30:47;;;;;;;;;;;14.80;99.90;;;;;;5073727;28;19916;-77
2021/10/02 11:33:28;;;;;;;;;;;14.80;99.90;;;;;;5075713;28;19922;-77
2021/10/02 11:35:54;;;;;;;;;;;14.80;99.90;;;;;;5087736;28;19921;-76
2021/10/02 11:38:34;;;;;;;;;;;14.90;99.90;;;;;;5066942;28;20219;-77
2021/10/02 11:41:00;;;;;;;;;;;14.90;99.90;;;;;;5073546;28;19920;-77
2021/10/02 11:43:27;;;;;;;;;;;14.90;99.90;;;;;;5066096;28;19916;-77
2021/10/02 11:45:54;;;;;;;;;;;14.90;99.90;;;;;;5070996;28;19916;-77
2021/10/02 11:48:29;;;;;;;;;;;15.00;99.90;;;;;;5069437;28;20003;-77
2021/10/02 11:51:14;;;;;;;;;;;15.00;99.90;;;;;;5065798;28;19967;-77
2021/10/02 11:53:43;;;;;;;;;;;15.10;99.90;;;;;;5065835;28;20006;-77
2021/10/02 11:56:13;;;;;;;;;;;15.10;99.90;;;;;;5071732;28;19916;-76
2021/10/02 11:58:40;;;;;;;;;;;15.20;99.90;;;;;;5064792;28;19920;-76
2021/10/02 12:01:06;;;;;;;;;;;15.30;99.90;;;;;;5069889;28;20341;-77
2021/10/02 12:03:32;;;;;;;;;;;15.30;99.90;;;;;;5070622;28;19917;-77
2021/10/02 12:05:59;;;;;;;;;;;15.30;99.90;;;;;;5074741;28;19966;-77
2021/10/02 12:08:25;;;;;;;;;;;15.30;99.90;;;;;;5082163;28;19916;-77
2021/10/02 12:10:51;;;;;;;;;;;15.30;99.90;;;;;;5082545;28;19999;-77
2021/10/02 12:13:25;;;;;;;;;;;15.20;99.90;;;;;;5099221;28;20010;-77
2021/10/02 12:15:57;;;;;;;;;;;15.20;99.90;;;;;;5080201;28;19962;-77
2021/10/02 12:18:22;;;;;;;;;;;15.20;99.90;;;;;;5079825;28;19927;-77
2021/10/02 12:20:48;;;;;;;;;;;15.20;99.90;;;;;;5080817;28;19913;-76
2021/10/02 12:23:13;;;;;;;;;;;15.30;99.90;;;;;;5077822;28;19963;-76
2021/10/02 12:25:42;;;;;;;;;;;15.40;99.90;;;;;;5081504;28;19920;-78
2021/10/02 12:28:07;;;;;;;;;;;15.70;99.90;;;;;;5084438;28;19999;-79
2021/10/02 12:30:33;;;;;;;;;;;15.80;99.90;;;;;;5084257;28;20020;-77
2021/10/02 12:33:00;;;;;;;;;;;16.00;99.90;;;;;;5082714;28;20325;-75
2021/10/02 12:35:25;;;;;;;;;;;16.10;99.90;;;;;;5083428;28;19927;-76
2021/10/02 12:37:51;;;;;;;;;;;16.20;99.90;;;;;;5082808;28;19965;-77
2021/10/02 12:40:17;;;;;;;;;;;16.30;99.90;;;;;;5083982;28;19973;-77
2021/10/02 12:42:47;;;;;;;;;;;16.30;99.90;;;;;;5084181;28;19916;-78
2021/10/02 12:45:15;;;;;;;;;;;16.40;99.90;;;;;;5081363;28;19920;-76
2021/10/02 12:47:46;;;;;;;;;;;16.50;99.90;;;;;;5081277;28;19916;-76
2021/10/02 12:50:12;;;;;;;;;;;16.40;99.90;;;;;;5081356;28;19912;-77
2021/10/02 12:52:38;;;;;;;;;;;16.40;99.90;;;;;;5080367;28;20414;-77
2021/10/02 12:55:08;;;;;;;;;;;16.30;99.90;;;;;;5083248;28;19960;-78
2021/10/02 12:57:34;;;;;;;;;;;16.30;99.90;;;;;;5080194;28;20723;-78
2021/10/02 13:00:05;;;;;;;;;;;16.20;99.90;;;;;;5098527;28;20329;-78
2021/10/02 13:02:31;;;;;;;;;;;16.10;99.90;;;;;;5079783;28;19919;-77
2021/10/02 13:04:57;;;;;;;;;;;16.10;99.90;;;;;;5082424;28;19920;-76
2021/10/02 13:07:28;;;;;;;;;;;16.00;99.90;;;;;;5081024;28;19962;-76
2021/10/02 13:10:04;;;;;;;;;;;15.90;99.90;;;;;;5081092;28;19916;-77
2021/10/02 13:12:34;;;;;;;;;;;15.90;99.90;;;;;;5079802;28;19995;-77
2021/10/02 13:15:02;;;;;;;;;;;15.90;99.90;;;;;;5079353;28;19920;-77
2021/10/02 13:17:28;;;;;;;;;;;15.90;99.90;;;;;;5082000;28;20057;-78
2021/10/02 13:20:11;;;;;;;;;;;15.80;99.90;;;;;;5081879;28;20011;-77
2021/10/02 13:22:37;;;;;;;;;;;15.80;99.90;;;;;;5088787;28;19959;-77
2021/10/02 13:25:08;;;;;;;;;;;15.70;99.90;;;;;;5074498;28;19920;-76
2021/10/02 13:27:35;;;;;;;;;;;15.70;99.90;;;;;;5078542;28;19913;-76
2021/10/02 13:30:04;;;;;;;;;;;15.70;99.90;;;;;;5079961;28;19912;-77
2021/10/02 13:32:29;;;;;;;;;;;15.60;99.90;;;;;;5098309;28;19916;-77
2021/10/02 13:34:55;;;;;;;;;;;15.40;99.90;;;;;;5073080;28;19921;-77
2021/10/02 13:37:25;;;;;;;;;;;15.50;99.90;;;;;;5071813;28;20258;-78
2021/10/02 13:39:51;;;;;;;;;;;15.40;99.90;;;;;;5072435;28;19916;-77
2021/10/02 13:42:18;;;;;;;;;;;15.30;99.90;;;;;;5082764;28;19966;-77
2021/10/02 13:44:44;;;;;;;;;;;15.30;99.90;;;;;;5079270;28;20382;-76
2021/10/02 13:47:10;;;;;;;;;;;15.20;99.90;;;;;;5097683;28;20015;-77
2021/10/02 13:49:35;;;;;;;;;;;15.20;99.90;;;;;;5083499;28;19913;-77
2021/10/02 13:52:01;;;;;;;;;;;15.20;99.90;;;;;;5082658;28;19913;-77
2021/10/02 13:54:26;;;;;;;;;;;15.10;99.90;;;;;;5081365;28;19916;-77
2021/10/02 13:56:56;;;;;;;;;;;15.10;99.90;;;;;;5083665;28;20278;-77
2021/10/02 13:59:21;;;;;;;;;;;15.10;99.90;;;;;;5081982;28;19925;-76
2021/10/02 14:01:47;;;;;;;;;;;15.00;99.90;;;;;;5086664;28;19919;-78
2021/10/02 14:04:13;;;;;;;;;;;15.00;99.90;;;;;;5085937;28;20003;-77
2021/10/02 14:06:39;;;;;;;;;;;15.00;99.90;;;;;;5084251;28;19920;-78
2021/10/02 14:09:04;;;;;;;;;;;15.00;99.90;;;;;;5081553;28;20218;-76
2021/10/02 14:11:30;;;;;;;;;;;15.00;99.90;;;;;;5086383;28;19931;-77
2021/10/02 14:13:56;;;;;;;;;;;15.10;99.90;;;;;;5088222;28;20042;-77
2021/10/02 14:16:21;;;;;;;;;;;15.10;99.90;;;;;;5085340;28;20314;-76
2021/10/02 14:18:47;;;;;;;;;;;15.10;99.90;;;;;;5085915;28;20303;-77
2021/10/02 14:21:13;;;;;;;;;;;15.10;99.90;;;;;;5084569;28;20306;-77
2021/10/02 14:23:39;;;;;;;;;;;15.10;99.90;;;;;;5081733;28;19916;-76
2021/10/02 14:26:04;;;;;;;;;;;15.00;99.90;;;;;;5082023;28;19969;-76
2021/10/02 14:28:31;;;;;;;;;;;15.00;99.90;;;;;;5084651;28;19951;-76
2021/10/02 14:30:57;;;;;;;;;;;15.00;99.90;;;;;;5083432;28;19920;-76
2021/10/02 14:33:23;;;;;;;;;;;14.90;99.90;;;;;;5082795;28;20270;-76
2021/10/02 14:35:49;;;;;;;;;;;14.90;99.90;;;;;;5086255;28;19970;-76
2021/10/02 14:38:15;;;;;;;;;;;14.90;99.90;;;;;;5085652;28;20211;-76
2021/10/02 14:40:41;;;;;;;;;;;14.80;99.90;;;;;;5084546;28;19984;-76
2021/10/02 14:43:07;;;;;;;;;;;14.80;99.90;;;;;;5084072;28;19917;-76
2021/10/02 14:45:33;;;;;;;;;;;14.70;99.90;;;;;;5084772;28;19916;-76
2021/10/02 14:47:59;;;;;;;;;;;14.70;99.90;;;;;;5084952;28;19913;-76
2021/10/02 14:50:24;;;;;;;;;;;14.70;99.90;;;;;;5086789;28;20349;-76
2021/10/02 14:52:50;;;;;;;;;;;14.70;99.90;;;;;;5100871;28;21569;-77
2021/10/02 14:55:16;;;;;;;;;;;14.60;99.90;;;;;;5083752;28;19966;-76
2021/10/02 14:57:44;;;;;;;;;;;14.60;99.90;;;;;;5081160;28;21300;-77
2021/10/02 15:00:11;;;;;;;;;;;14.60;99.90;;;;;;5083298;28;20263;-76
2021/10/02 15:02:38;;;;;;;;;;;14.50;99.90;;;;;;5083156;28;19916;-76
2021/10/02 15:05:05;;;;;;;;;;;14.50;99.90;;;;;;5082386;28;19951;-77
2021/10/02 15:07:30;;;;;;;;;;;14.50;99.90;;;;;;5084350;28;19916;-75
2021/10/02 15:09:58;;;;;;;;;;;14.50;99.90;;;;;;5080969;28;19923;-76
2021/10/02 15:12:24;;;;;;;;;;;14.50;99.90;;;;;;5099502;28;19928;-76
2021/10/02 15:14:51;;;;;;;;;;;14.40;99.90;;;;;;5082867;28;20024;-76